sensor_id;sensor_type;location;lat;lon;timestamp;temperature;humidity
37274;DHT22;23161;51.250;5.554;2023-06-26T00:01:17;21.40;99.90
37274;DHT22;23161;51.250;5.554;2023-06-26T00:03:49;21.50;99.90
37274;DHT22;23161;51.250;5.554;2023-06-26T00:06:15;21.40;99.90
37274;DHT22;23161;51.250;5.554;2023-06-26T00:08:41;21.40;99.90
37274;DHT22;23161;51.250;5.554;2023-06-26T00:11:06;21.50;99.90
37274;DHT22;23161;51.250;5.554;2023-06-26T00:13:34;21.50;99.90
37274;DHT22;23161;51.250;5.554;2023-06-26T00:15:59;21.60;99.90
37274;DHT22;23161;51.250;5.554;2023-06-26T00:18:29;21.70;99.90
37274;DHT22;23161;51.250;5.554;2023-06-26T00:20:55;21.80;99.90
37274;DHT22;23161;51.250;5.554;2023-06-26T00:23:21;21.80;99.90
37274;DHT22;23161;51.250;5.554;2023-06-26T00:25:47;21.80;99.90
37274;DHT22;23161;51.250;5.554;2023-06-26T00:28:13;21.80;99.90
37274;DHT22;23161;51.250;5.554;2023-06-26T00:30:38;21.80;99.90
37274;DHT22;23161;51.250;5.554;2023-06-26T00:33:04;21.80;99.90
37274;DHT22;23161;51.250;5.554;2023-06-26T00:35:31;21.80;99.90
37274;DHT22;23161;51.250;5.554;2023-06-26T00:37:56;21.90;99.90
37274;DHT22;23161;51.250;5.554;2023-06-26T00:40:22;21.70;99.90
37274;DHT22;23161;51.250;5.554;2023-06-26T00:42:49;21.70;99.90
37274;DHT22;23161;51.250;5.554;2023-06-26T00:45:15;21.80;99.90
37274;DHT22;23161;51.250;5.554;2023-06-26T00:47:41;21.70;99.90
37274;DHT22;23161;51.250;5.554;2023-06-26T00:50:07;21.70;99.90
37274;DHT22;23161;51.250;5.554;2023-06-26T00:52:33;21.70;99.90
37274;DHT22;23161;51.250;5.554;2023-06-26T00:54:59;21.70;99.90
37274;DHT22;23161;51.250;5.554;2023-06-26T00:57:25;21.70;99.90
37274;DHT22;23161;51.250;5.554;2023-06-26T00:59:53;21.70;99.90
37274;DHT22;23161;51.250;5.554;2023-06-26T01:02:20;21.60;99.90
37274;DHT22;23161;51.250;5.554;2023-06-26T01:04:50;21.60;99.90
37274;DHT22;23161;51.250;5.554;2023-06-26T01:07:18;21.60;99.90
37274;DHT22;23161;51.250;5.554;2023-06-26T01:09:48;21.50;99.90
37274;DHT22;23161;51.250;5.554;2023-06-26T01:12:14;21.50;99.90
37274;DHT22;23161;51.250;5.554;2023-06-26T01:14:40;21.50;99.90
37274;DHT22;23161;51.250;5.554;2023-06-26T01:17:08;21.40;99.90
37274;DHT22;23161;51.250;5.554;2023-06-26T01:19:38;21.40;99.90
37274;DHT22;23161;51.250;5.554;2023-06-26T01:22:14;21.40;99.90
37274;DHT22;23161;51.250;5.554;2023-06-26T01:25:09;21.40;99.90
37274;DHT22;23161;51.250;5.554;2023-06-26T01:27:38;21.40;99.90
37274;DHT22;23161;51.250;5.554;2023-06-26T01:30:05;21.50;99.90
37274;DHT22;23161;51.250;5.554;2023-06-26T01:32:32;21.40;99.90
37274;DHT22;23161;51.250;5.554;2023-06-26T01:34:59;21.50;99.90
37274;DHT22;23161;51.250;5.554;2023-06-26T01:37:28;21.50;99.90
37274;DHT22;23161;51.250;5.554;2023-06-26T01:39:54;21.50;99.90
37274;DHT22;23161;51.250;5.554;2023-06-26T01:42:20;21.40;99.90
37274;DHT22;23161;51.250;5.554;2023-06-26T01:44:46;21.40;99.90
37274;DHT22;23161;51.250;5.554;2023-06-26T01:47:16;21.40;99.90
37274;DHT22;23161;51.250;5.554;2023-06-26T01:50:00;21.40;99.90
37274;DHT22;23161;51.250;5.554;2023-06-26T01:52:42;21.40;99.90
37274;DHT22;23161;51.250;5.554;2023-06-26T01:55:21;21.40;99.90
37274;DHT22;23161;51.250;5.554;2023-06-26T01:57:48;21.40;99.90
37274;DHT22;23161;51.250;5.554;2023-06-26T02:00:17;21.30;99.90
37274;DHT22;23161;51.250;5.554;2023-06-26T02:02:45;21.40;99.90
37274;DHT22;23161;51.250;5.554;2023-06-26T02:05:13;21.30;99.90
37274;DHT22;23161;51.250;5.554;2023-06-26T02:07:39;21.30;99.90
37274;DHT22;23161;51.250;5.554;2023-06-26T02:10:06;21.30;99.90
37274;DHT22;23161;51.250;5.554;2023-06-26T02:12:33;21.30;99.90
37274;DHT22;23161;51.250;5.554;2023-06-26T02:14:59;21.30;99.90
37274;DHT22;23161;51.250;5.554;2023-06-26T02:17:25;21.20;99.90
37274;DHT22;23161;51.250;5.554;2023-06-26T02:19:54;21.10;99.90
37274;DHT22;23161;51.250;5.554;2023-06-26T02:22:20;21.10;99.90
37274;DHT22;23161;51.250;5.554;2023-06-26T02:24:47;21.00;99.90
37274;DHT22;23161;51.250;5.554;2023-06-26T02:27:13;21.00;99.90
37274;DHT22;23161;51.250;5.554;2023-06-26T02:29:40;21.00;99.90
37274;DHT22;23161;51.250;5.554;2023-06-26T02:32:08;21.00;99.90
37274;DHT22;23161;51.250;5.554;2023-06-26T02:34:34;20.90;99.90
37274;DHT22;23161;51.250;5.554;2023-06-26T02:37:01;20.90;99.90
37274;DHT22;23161;51.250;5.554;2023-06-26T02:39:27;20.80;99.90
37274;DHT22;23161;51.250;5.554;2023-06-26T02:41:54;20.90;99.90
37274;DHT22;23161;51.250;5.554;2023-06-26T02:44:22;20.80;99.90
37274;DHT22;23161;51.250;5.554;2023-06-26T02:46:48;20.80;99.90
37274;DHT22;23161;51.250;5.554;2023-06-26T02:49:14;20.70;99.90
37274;DHT22;23161;51.250;5.554;2023-06-26T02:51:40;20.60;99.90
37274;DHT22;23161;51.250;5.554;2023-06-26T02:54:13;20.50;99.90
37274;DHT22;23161;51.250;5.554;2023-06-26T02:56:42;20.60;99.90
37274;DHT22;23161;51.250;5.554;2023-06-26T02:59:08;20.50;99.90
37274;DHT22;23161;51.250;5.554;2023-06-26T03:01:34;20.50;99.90
37274;DHT22;23161;51.250;5.554;2023-06-26T03:04:00;20.50;99.90
37274;DHT22;23161;51.250;5.554;2023-06-26T03:06:27;20.60;99.90
37274;DHT22;23161;51.250;5.554;2023-06-26T03:08:53;20.50;99.90
37274;DHT22;23161;51.250;5.554;2023-06-26T03:11:19;20.50;99.90
37274;DHT22;23161;51.250;5.554;2023-06-26T03:13:45;20.50;99.90
37274;DHT22;23161;51.250;5.554;2023-06-26T03:16:11;20.60;99.90
37274;DHT22;23161;51.250;5.554;2023-06-26T03:18:38;20.60;99.90
37274;DHT22;23161;51.250;5.554;2023-06-26T03:21:05;20.60;99.90
37274;DHT22;23161;51.250;5.554;2023-06-26T03:23:31;20.60;99.90
37274;DHT22;23161;51.250;5.554;2023-06-26T03:25:57;20.60;99.90
37274;DHT22;23161;51.250;5.554;2023-06-26T03:28:28;20.60;99.90
37274;DHT22;23161;51.250;5.554;2023-06-26T03:30:54;20.60;99.90
37274;DHT22;23161;51.250;5.554;2023-06-26T03:33:20;20.50;99.90
37274;DHT22;23161;51.250;5.554;2023-06-26T03:35:46;20.50;99.90
37274;DHT22;23161;51.250;5.554;2023-06-26T03:38:13;20.50;99.90
37274;DHT22;23161;51.250;5.554;2023-06-26T03:40:41;20.50;99.90
37274;DHT22;23161;51.250;5.554;2023-06-26T03:43:06;20.50;99.90
37274;DHT22;23161;51.250;5.554;2023-06-26T03:45:47;20.50;99.90
37274;DHT22;23161;51.250;5.554;2023-06-26T03:48:13;20.50;99.90
37274;DHT22;23161;51.250;5.554;2023-06-26T03:50:39;20.40;99.90
37274;DHT22;23161;51.250;5.554;2023-06-26T03:53:05;20.30;99.90
37274;DHT22;23161;51.250;5.554;2023-06-26T03:55:31;20.30;99.90
37274;DHT22;23161;51.250;5.554;2023-06-26T03:57:57;20.20;99.90
37274;DHT22;23161;51.250;5.554;2023-06-26T04:00:23;20.20;99.90
37274;DHT22;23161;51.250;5.554;2023-06-26T04:02:49;20.20;99.90
37274;DHT22;23161;51.250;5.554;2023-06-26T04:05:17;20.10;99.90
37274;DHT22;23161;51.250;5.554;2023-06-26T04:07:42;20.10;99.90
37274;DHT22;23161;51.250;5.554;2023-06-26T04:10:09;20.00;99.90
37274;DHT22;23161;51.250;5.554;2023-06-26T04:12:35;20.00;99.90
37274;DHT22;23161;51.250;5.554;2023-06-26T04:15:00;19.90;99.90
37274;DHT22;23161;51.250;5.554;2023-06-26T04:17:26;19.90;99.90
37274;DHT22;23161;51.250;5.554;2023-06-26T04:19:52;20.00;99.90
37274;DHT22;23161;51.250;5.554;2023-06-26T04:22:18;20.30;99.90
37274;DHT22;23161;51.250;5.554;2023-06-26T04:24:43;20.60;99.90
37274;DHT22;23161;51.250;5.554;2023-06-26T04:27:11;20.80;99.90
37274;DHT22;23161;51.250;5.554;2023-06-26T04:29:39;21.10;99.90
37274;DHT22;23161;51.250;5.554;2023-06-26T04:32:05;21.50;99.90
37274;DHT22;23161;51.250;5.554;2023-06-26T04:34:32;21.90;99.90
37274;DHT22;23161;51.250;5.554;2023-06-26T04:36:59;22.30;99.90
37274;DHT22;23161;51.250;5.554;2023-06-26T04:39:25;22.60;99.90
37274;DHT22;23161;51.250;5.554;2023-06-26T04:41:51;22.70;99.90
37274;DHT22;23161;51.250;5.554;2023-06-26T04:44:17;22.80;99.90
37274;DHT22;23161;51.250;5.554;2023-06-26T04:46:43;23.30;99.90
37274;DHT22;23161;51.250;5.554;2023-06-26T04:49:09;23.40;99.90
37274;DHT22;23161;51.250;5.554;2023-06-26T04:51:35;23.60;99.90
37274;DHT22;23161;51.250;5.554;2023-06-26T04:54:10;24.10;99.90
37274;DHT22;23161;51.250;5.554;2023-06-26T04:56:36;24.50;99.90
37274;DHT22;23161;51.250;5.554;2023-06-26T04:59:02;25.00;99.90
37274;DHT22;23161;51.250;5.554;2023-06-26T05:01:29;25.40;99.90
37274;DHT22;23161;51.250;5.554;2023-06-26T05:04:01;25.20;99.90
37274;DHT22;23161;51.250;5.554;2023-06-26T05:06:28;24.40;99.90
37274;DHT22;23161;51.250;5.554;2023-06-26T05:08:53;24.20;99.90
37274;DHT22;23161;51.250;5.554;2023-06-26T05:11:19;24.70;99.90
37274;DHT22;23161;51.250;5.554;2023-06-26T05:13:45;25.50;99.90
37274;DHT22;23161;51.250;5.554;2023-06-26T05:16:11;26.30;99.90
37274;DHT22;23161;51.250;5.554;2023-06-26T05:18:37;27.10;99.90
37274;DHT22;23161;51.250;5.554;2023-06-26T05:21:03;28.00;99.00
37274;DHT22;23161;51.250;5.554;2023-06-26T05:23:33;27.80;98.30
37274;DHT22;23161;51.250;5.554;2023-06-26T05:26:01;27.80;98.30
37274;DHT22;23161;51.250;5.554;2023-06-26T05:28:28;27.60;98.30
37274;DHT22;23161;51.250;5.554;2023-06-26T05:30:59;28.20;97.20
37274;DHT22;23161;51.250;5.554;2023-06-26T05:33:26;29.10;96.30
37274;DHT22;23161;51.250;5.554;2023-06-26T05:35:53;28.90;95.90
37274;DHT22;23161;51.250;5.554;2023-06-26T05:38:20;28.70;96.10
37274;DHT22;23161;51.250;5.554;2023-06-26T05:40:46;29.70;94.70
37274;DHT22;23161;51.250;5.554;2023-06-26T05:43:12;29.40;94.50
37274;DHT22;23161;51.250;5.554;2023-06-26T05:45:38;29.90;93.80
37274;DHT22;23161;51.250;5.554;2023-06-26T05:48:04;30.60;93.00
37274;DHT22;23161;51.250;5.554;2023-06-26T05:50:30;29.40;92.90
37274;DHT22;23161;51.250;5.554;2023-06-26T05:52:57;27.80;94.20
37274;DHT22;23161;51.250;5.554;2023-06-26T05:55:23;27.20;95.40
37274;DHT22;23161;51.250;5.554;2023-06-26T05:57:50;27.20;95.80
37274;DHT22;23161;51.250;5.554;2023-06-26T06:00:17;28.50;94.70
37274;DHT22;23161;51.250;5.554;2023-06-26T06:02:43;29.30;93.50
37274;DHT22;23161;51.250;5.554;2023-06-26T06:05:09;30.10;92.50
37274;DHT22;23161;51.250;5.554;2023-06-26T06:07:35;30.40;91.50
37274;DHT22;23161;51.250;5.554;2023-06-26T06:10:02;31.60;90.10
37274;DHT22;23161;51.250;5.554;2023-06-26T06:12:28;31.40;90.10
37274;DHT22;23161;51.250;5.554;2023-06-26T06:14:55;33.00;86.00
37274;DHT22;23161;51.250;5.554;2023-06-26T06:17:21;34.20;83.80
37274;DHT22;23161;51.250;5.554;2023-06-26T06:19:48;35.60;79.10
37274;DHT22;23161;51.250;5.554;2023-06-26T06:22:14;35.20;77.30
37274;DHT22;23161;51.250;5.554;2023-06-26T06:24:42;34.30;76.70
37274;DHT22;23161;51.250;5.554;2023-06-26T06:27:08;33.70;76.80
37274;DHT22;23161;51.250;5.554;2023-06-26T06:29:34;33.10;77.80
37274;DHT22;23161;51.250;5.554;2023-06-26T06:31:59;33.50;77.40
37274;DHT22;23161;51.250;5.554;2023-06-26T06:34:25;34.20;77.20
37274;DHT22;23161;51.250;5.554;2023-06-26T06:36:51;33.30;77.80
37274;DHT22;23161;51.250;5.554;2023-06-26T06:39:17;32.40;78.40
37274;DHT22;23161;51.250;5.554;2023-06-26T06:41:43;33.20;77.60
37274;DHT22;23161;51.250;5.554;2023-06-26T06:44:10;33.40;77.50
37274;DHT22;23161;51.250;5.554;2023-06-26T06:46:35;34.40;75.50
37274;DHT22;23161;51.250;5.554;2023-06-26T06:49:01;34.80;75.40
37274;DHT22;23161;51.250;5.554;2023-06-26T06:51:28;34.80;74.00
37274;DHT22;23161;51.250;5.554;2023-06-26T06:53:54;36.00;72.50
37274;DHT22;23161;51.250;5.554;2023-06-26T06:56:20;36.00;71.90
37274;DHT22;23161;51.250;5.554;2023-06-26T06:58:46;36.30;71.40
37274;DHT22;23161;51.250;5.554;2023-06-26T07:01:13;34.70;72.30
37274;DHT22;23161;51.250;5.554;2023-06-26T07:03:39;36.30;71.60
37274;DHT22;23161;51.250;5.554;2023-06-26T07:06:05;36.80;69.30
37274;DHT22;23161;51.250;5.554;2023-06-26T07:08:31;36.70;69.30
37274;DHT22;23161;51.250;5.554;2023-06-26T07:10:57;37.30;68.90
37274;DHT22;23161;51.250;5.554;2023-06-26T07:13:23;37.30;68.40
37274;DHT22;23161;51.250;5.554;2023-06-26T07:15:49;37.20;67.40
37274;DHT22;23161;51.250;5.554;2023-06-26T07:18:15;37.60;67.20
37274;DHT22;23161;51.250;5.554;2023-06-26T07:20:41;36.80;67.10
37274;DHT22;23161;51.250;5.554;2023-06-26T07:23:07;37.50;66.20
37274;DHT22;23161;51.250;5.554;2023-06-26T07:25:34;36.90;66.20
37274;DHT22;23161;51.250;5.554;2023-06-26T07:28:00;37.00;65.70
37274;DHT22;23161;51.250;5.554;2023-06-26T07:30:25;36.70;66.60
37274;DHT22;23161;51.250;5.554;2023-06-26T07:32:51;36.20;67.00
37274;DHT22;23161;51.250;5.554;2023-06-26T07:35:17;35.20;67.90
37274;DHT22;23161;51.250;5.554;2023-06-26T07:37:43;34.90;68.00
37274;DHT22;23161;51.250;5.554;2023-06-26T07:40:10;34.00;69.10
37274;DHT22;23161;51.250;5.554;2023-06-26T07:42:36;32.90;70.30
37274;DHT22;23161;51.250;5.554;2023-06-26T07:45:02;31.60;72.50
37274;DHT22;23161;51.250;5.554;2023-06-26T07:47:36;31.10;72.90
37274;DHT22;23161;51.250;5.554;2023-06-26T07:50:02;31.30;73.10
37274;DHT22;23161;51.250;5.554;2023-06-26T07:52:28;29.90;74.50
37274;DHT22;23161;51.250;5.554;2023-06-26T07:54:53;28.80;75.70
37274;DHT22;23161;51.250;5.554;2023-06-26T07:57:20;30.80;75.60
37274;DHT22;23161;51.250;5.554;2023-06-26T07:59:46;33.10;72.60
37274;DHT22;23161;51.250;5.554;2023-06-26T08:02:12;34.40;69.60
37274;DHT22;23161;51.250;5.554;2023-06-26T08:04:37;34.70;68.60
37274;DHT22;23161;51.250;5.554;2023-06-26T08:07:03;36.40;66.30
37274;DHT22;23161;51.250;5.554;2023-06-26T08:09:30;38.40;64.60
37274;DHT22;23161;51.250;5.554;2023-06-26T08:11:56;38.40;63.90
37274;DHT22;23161;51.250;5.554;2023-06-26T08:14:22;38.30;64.40
37274;DHT22;23161;51.250;5.554;2023-06-26T08:16:49;37.90;64.20
37274;DHT22;23161;51.250;5.554;2023-06-26T08:19:15;35.90;65.50
37274;DHT22;23161;51.250;5.554;2023-06-26T08:21:42;33.60;66.60
37274;DHT22;23161;51.250;5.554;2023-06-26T08:24:09;33.00;67.60
37274;DHT22;23161;51.250;5.554;2023-06-26T08:26:35;31.90;70.30
37274;DHT22;23161;51.250;5.554;2023-06-26T08:29:01;32.60;69.90
37274;DHT22;23161;51.250;5.554;2023-06-26T08:31:34;33.70;68.90
37274;DHT22;23161;51.250;5.554;2023-06-26T08:34:00;33.30;67.10
37274;DHT22;23161;51.250;5.554;2023-06-26T08:36:26;33.40;67.20
37274;DHT22;23161;51.250;5.554;2023-06-26T08:38:53;33.50;67.00
37274;DHT22;23161;51.250;5.554;2023-06-26T08:41:19;33.20;66.30
37274;DHT22;23161;51.250;5.554;2023-06-26T08:43:45;33.90;66.10
37274;DHT22;23161;51.250;5.554;2023-06-26T08:46:10;35.50;64.30
37274;DHT22;23161;51.250;5.554;2023-06-26T08:48:37;37.00;61.90
37274;DHT22;23161;51.250;5.554;2023-06-26T08:51:09;38.50;60.80
37274;DHT22;23161;51.250;5.554;2023-06-26T08:54:11;39.40;60.30
37274;DHT22;23161;51.250;5.554;2023-06-26T08:56:41;39.20;60.00
37274;DHT22;23161;51.250;5.554;2023-06-26T08:59:08;39.40;59.30
37274;DHT22;23161;51.250;5.554;2023-06-26T09:01:40;39.80;59.30
37274;DHT22;23161;51.250;5.554;2023-06-26T09:04:07;40.50;58.70
37274;DHT22;23161;51.250;5.554;2023-06-26T09:06:33;40.90;57.40
37274;DHT22;23161;51.250;5.554;2023-06-26T09:08:59;38.90;57.90
37274;DHT22;23161;51.250;5.554;2023-06-26T09:11:25;38.90;58.60
37274;DHT22;23161;51.250;5.554;2023-06-26T09:13:51;37.90;58.60
37274;DHT22;23161;51.250;5.554;2023-06-26T09:16:17;37.20;59.00
37274;DHT22;23161;51.250;5.554;2023-06-26T09:18:46;37.50;60.10
37274;DHT22;23161;51.250;5.554;2023-06-26T09:21:13;37.20;60.70
37274;DHT22;23161;51.250;5.554;2023-06-26T09:23:40;38.10;59.50
37274;DHT22;23161;51.250;5.554;2023-06-26T09:26:07;35.90;60.00
37274;DHT22;23161;51.250;5.554;2023-06-26T09:28:34;34.30;61.60
37274;DHT22;23161;51.250;5.554;2023-06-26T09:31:04;33.10;63.30
37274;DHT22;23161;51.250;5.554;2023-06-26T09:33:34;34.00;62.80
37274;DHT22;23161;51.250;5.554;2023-06-26T09:36:01;32.50;63.90
37274;DHT22;23161;51.250;5.554;2023-06-26T09:38:27;33.10;64.50
37274;DHT22;23161;51.250;5.554;2023-06-26T09:40:53;35.00;63.20
37274;DHT22;23161;51.250;5.554;2023-06-26T09:43:20;36.50;62.00
37274;DHT22;23161;51.250;5.554;2023-06-26T09:45:46;37.80;60.00
37274;DHT22;23161;51.250;5.554;2023-06-26T09:48:14;38.00;60.20
37274;DHT22;23161;51.250;5.554;2023-06-26T09:50:41;36.60;59.00
37274;DHT22;23161;51.250;5.554;2023-06-26T09:53:12;36.40;59.80
37274;DHT22;23161;51.250;5.554;2023-06-26T09:55:41;36.00;59.10
37274;DHT22;23161;51.250;5.554;2023-06-26T09:58:11;36.40;56.30
37274;DHT22;23161;51.250;5.554;2023-06-26T10:00:41;36.20;56.80
37274;DHT22;23161;51.250;5.554;2023-06-26T10:03:07;36.20;56.60
37274;DHT22;23161;51.250;5.554;2023-06-26T10:05:33;35.00;57.00
37274;DHT22;23161;51.250;5.554;2023-06-26T10:08:01;34.50;58.40
37274;DHT22;23161;51.250;5.554;2023-06-26T10:10:28;33.60;60.30
37274;DHT22;23161;51.250;5.554;2023-06-26T10:13:00;34.20;60.00
37274;DHT22;23161;51.250;5.554;2023-06-26T10:15:29;33.70;59.50
37274;DHT22;23161;51.250;5.554;2023-06-26T10:17:56;33.30;59.40
37274;DHT22;23161;51.250;5.554;2023-06-26T10:20:23;34.00;59.00
37274;DHT22;23161;51.250;5.554;2023-06-26T10:22:50;34.80;59.00
37274;DHT22;23161;51.250;5.554;2023-06-26T10:25:19;34.80;58.40
37274;DHT22;23161;51.250;5.554;2023-06-26T10:27:55;34.20;60.10
37274;DHT22;23161;51.250;5.554;2023-06-26T10:30:27;34.80;58.90
37274;DHT22;23161;51.250;5.554;2023-06-26T10:32:54;34.70;56.80
37274;DHT22;23161;51.250;5.554;2023-06-26T10:35:20;34.50;56.50
37274;DHT22;23161;51.250;5.554;2023-06-26T10:37:49;34.90;55.30
37274;DHT22;23161;51.250;5.554;2023-06-26T10:40:39;33.80;55.60
37274;DHT22;23161;51.250;5.554;2023-06-26T10:43:06;33.00;56.40
37274;DHT22;23161;51.250;5.554;2023-06-26T10:45:34;32.70;56.50
37274;DHT22;23161;51.250;5.554;2023-06-26T10:48:01;32.20;55.20
37274;DHT22;23161;51.250;5.554;2023-06-26T10:50:29;32.00;56.50
37274;DHT22;23161;51.250;5.554;2023-06-26T10:55:57;31.20;57.50
37274;DHT22;23161;51.250;5.554;2023-06-26T11:03:38;32.00;55.30
37274;DHT22;23161;51.250;5.554;2023-06-26T11:06:11;32.20;53.50
37274;DHT22;23161;51.250;5.554;2023-06-26T11:09:01;31.80;55.40
37274;DHT22;23161;51.250;5.554;2023-06-26T11:14:19;31.60;55.10
37274;DHT22;23161;51.250;5.554;2023-06-26T11:16:45;31.40;54.50
37274;DHT22;23161;51.250;5.554;2023-06-26T11:19:12;31.80;54.50
37274;DHT22;23161;51.250;5.554;2023-06-26T11:21:39;31.80;54.50
37274;DHT22;23161;51.250;5.554;2023-06-26T11:24:06;31.70;53.60
37274;DHT22;23161;51.250;5.554;2023-06-26T11:26:42;32.10;55.40
37274;DHT22;23161;51.250;5.554;2023-06-26T11:29:09;32.30;55.20
37274;DHT22;23161;51.250;5.554;2023-06-26T11:31:36;32.40;55.30
37274;DHT22;23161;51.250;5.554;2023-06-26T11:34:11;32.30;57.10
37274;DHT22;23161;51.250;5.554;2023-06-26T11:36:38;31.60;56.10
37274;DHT22;23161;51.250;5.554;2023-06-26T11:39:05;31.50;56.30
37274;DHT22;23161;51.250;5.554;2023-06-26T11:41:33;31.60;56.40
37274;DHT22;23161;51.250;5.554;2023-06-26T11:44:03;31.70;57.30
37274;DHT22;23161;51.250;5.554;2023-06-26T11:46:30;31.70;54.80
37274;DHT22;23161;51.250;5.554;2023-06-26T11:48:56;31.00;55.90
37274;DHT22;23161;51.250;5.554;2023-06-26T11:51:22;30.70;56.70
37274;DHT22;23161;51.250;5.554;2023-06-26T11:53:48;30.20;56.70
37274;DHT22;23161;51.250;5.554;2023-06-26T11:56:16;30.10;59.10
37274;DHT22;23161;51.250;5.554;2023-06-26T12:01:36;29.90;57.40
37274;DHT22;23161;51.250;5.554;2023-06-26T12:04:04;29.80;56.30
37274;DHT22;23161;51.250;5.554;2023-06-26T12:06:32;29.60;58.70
37274;DHT22;23161;51.250;5.554;2023-06-26T12:09:01;29.60;60.10
37274;DHT22;23161;51.250;5.554;2023-06-26T12:11:29;29.60;56.80
37274;DHT22;23161;51.250;5.554;2023-06-26T12:13:56;29.60;58.40
37274;DHT22;23161;51.250;5.554;2023-06-26T12:16:22;29.10;55.90
37274;DHT22;23161;51.250;5.554;2023-06-26T12:18:48;29.10;57.10
37274;DHT22;23161;51.250;5.554;2023-06-26T12:24:13;29.60;56.10
37274;DHT22;23161;51.250;5.554;2023-06-26T12:26:41;29.60;57.60
37274;DHT22;23161;51.250;5.554;2023-06-26T12:29:11;29.50;59.00
37274;DHT22;23161;51.250;5.554;2023-06-26T12:31:43;29.70;57.20
37274;DHT22;23161;51.250;5.554;2023-06-26T12:34:11;30.10;58.00
37274;DHT22;23161;51.250;5.554;2023-06-26T12:36:50;29.70;58.70
37274;DHT22;23161;51.250;5.554;2023-06-26T12:39:20;30.00;56.90
37274;DHT22;23161;51.250;5.554;2023-06-26T12:41:48;30.30;57.80
37274;DHT22;23161;51.250;5.554;2023-06-26T12:44:20;29.70;57.80
37274;DHT22;23161;51.250;5.554;2023-06-26T12:46:53;29.20;59.60
37274;DHT22;23161;51.250;5.554;2023-06-26T12:49:19;28.90;62.70
37274;DHT22;23161;51.250;5.554;2023-06-26T12:51:46;28.80;61.10
37274;DHT22;23161;51.250;5.554;2023-06-26T12:54:11;28.60;62.60
37274;DHT22;23161;51.250;5.554;2023-06-26T12:56:37;28.90;62.90
37274;DHT22;23161;51.250;5.554;2023-06-26T12:59:03;29.00;62.90
37274;DHT22;23161;51.250;5.554;2023-06-26T13:01:29;29.20;61.10
37274;DHT22;23161;51.250;5.554;2023-06-26T13:03:54;29.00;61.20
37274;DHT22;23161;51.250;5.554;2023-06-26T13:06:20;28.70;61.20
37274;DHT22;23161;51.250;5.554;2023-06-26T13:08:46;28.50;62.90
37274;DHT22;23161;51.250;5.554;2023-06-26T13:11:12;28.30;63.30
37274;DHT22;23161;51.250;5.554;2023-06-26T13:13:38;27.90;63.20
37274;DHT22;23161;51.250;5.554;2023-06-26T13:16:04;27.70;63.50
37274;DHT22;23161;51.250;5.554;2023-06-26T13:18:31;27.90;65.60
37274;DHT22;23161;51.250;5.554;2023-06-26T13:20:57;27.50;62.80
37274;DHT22;23161;51.250;5.554;2023-06-26T13:23:23;27.40;62.50
37274;DHT22;23161;51.250;5.554;2023-06-26T13:25:49;27.20;64.00
37274;DHT22;23161;51.250;5.554;2023-06-26T13:28:16;27.10;64.50
37274;DHT22;23161;51.250;5.554;2023-06-26T13:30:41;27.20;63.80
37274;DHT22;23161;51.250;5.554;2023-06-26T13:33:07;27.30;64.30
37274;DHT22;23161;51.250;5.554;2023-06-26T13:35:33;27.20;63.60
37274;DHT22;23161;51.250;5.554;2023-06-26T13:37:59;27.10;62.50
37274;DHT22;23161;51.250;5.554;2023-06-26T13:40:25;26.70;64.10
37274;DHT22;23161;51.250;5.554;2023-06-26T13:42:50;27.10;64.40
37274;DHT22;23161;51.250;5.554;2023-06-26T13:45:16;27.00;63.40
37274;DHT22;23161;51.250;5.554;2023-06-26T13:47:42;27.00;63.10
37274;DHT22;23161;51.250;5.554;2023-06-26T13:50:09;27.10;63.00
37274;DHT22;23161;51.250;5.554;2023-06-26T13:52:35;27.50;64.20
37274;DHT22;23161;51.250;5.554;2023-06-26T13:55:01;27.40;63.20
37274;DHT22;23161;51.250;5.554;2023-06-26T13:57:30;27.50;62.10
37274;DHT22;23161;51.250;5.554;2023-06-26T13:59:56;27.60;62.30
37274;DHT22;23161;51.250;5.554;2023-06-26T14:02:22;27.60;60.80
37274;DHT22;23161;51.250;5.554;2023-06-26T14:04:48;27.30;61.40
37274;DHT22;23161;51.250;5.554;2023-06-26T14:07:14;27.20;60.00
37274;DHT22;23161;51.250;5.554;2023-06-26T14:09:40;27.00;59.60
37274;DHT22;23161;51.250;5.554;2023-06-26T14:12:07;27.00;59.80
37274;DHT22;23161;51.250;5.554;2023-06-26T14:14:33;27.20;62.60
37274;DHT22;23161;51.250;5.554;2023-06-26T14:16:59;27.00;62.00
37274;DHT22;23161;51.250;5.554;2023-06-26T14:19:25;26.80;63.30
37274;DHT22;23161;51.250;5.554;2023-06-26T14:21:52;26.70;64.80
37274;DHT22;23161;51.250;5.554;2023-06-26T14:24:18;26.60;65.30
37274;DHT22;23161;51.250;5.554;2023-06-26T14:26:43;26.60;65.00
37274;DHT22;23161;51.250;5.554;2023-06-26T14:29:09;26.10;65.80
37274;DHT22;23161;51.250;5.554;2023-06-26T14:31:35;25.90;66.10
37274;DHT22;23161;51.250;5.554;2023-06-26T14:34:01;25.80;67.20
37274;DHT22;23161;51.250;5.554;2023-06-26T14:36:28;25.80;66.20
37274;DHT22;23161;51.250;5.554;2023-06-26T14:38:57;25.90;67.10
37274;DHT22;23161;51.250;5.554;2023-06-26T14:41:24;25.90;64.70
37274;DHT22;23161;51.250;5.554;2023-06-26T14:43:52;25.70;63.20
37274;DHT22;23161;51.250;5.554;2023-06-26T14:46:19;25.60;66.00
37274;DHT22;23161;51.250;5.554;2023-06-26T14:48:44;25.90;65.10
37274;DHT22;23161;51.250;5.554;2023-06-26T14:51:11;26.00;63.90
37274;DHT22;23161;51.250;5.554;2023-06-26T14:53:37;25.70;63.90
37274;DHT22;23161;51.250;5.554;2023-06-26T14:56:03;25.90;63.10
37274;DHT22;23161;51.250;5.554;2023-06-26T14:58:31;26.00;62.90
37274;DHT22;23161;51.250;5.554;2023-06-26T15:00:56;25.80;62.60
37274;DHT22;23161;51.250;5.554;2023-06-26T15:03:23;25.60;64.40
37274;DHT22;23161;51.250;5.554;2023-06-26T15:05:48;25.30;65.50
37274;DHT22;23161;51.250;5.554;2023-06-26T15:08:14;25.40;66.70
37274;DHT22;23161;51.250;5.554;2023-06-26T15:10:40;25.50;67.50
37274;DHT22;23161;51.250;5.554;2023-06-26T15:13:06;25.50;67.30
37274;DHT22;23161;51.250;5.554;2023-06-26T15:15:33;25.70;67.00
37274;DHT22;23161;51.250;5.554;2023-06-26T15:17:59;25.60;67.10
37274;DHT22;23161;51.250;5.554;2023-06-26T15:20:25;25.50;66.70
37274;DHT22;23161;51.250;5.554;2023-06-26T15:22:51;25.50;67.00
37274;DHT22;23161;51.250;5.554;2023-06-26T15:25:17;25.70;67.70
37274;DHT22;23161;51.250;5.554;2023-06-26T15:27:42;25.60;65.50
37274;DHT22;23161;51.250;5.554;2023-06-26T15:30:08;25.60;67.00
37274;DHT22;23161;51.250;5.554;2023-06-26T15:32:34;25.40;68.20
37274;DHT22;23161;51.250;5.554;2023-06-26T15:35:00;25.30;69.60
37274;DHT22;23161;51.250;5.554;2023-06-26T15:37:26;24.90;67.90
37274;DHT22;23161;51.250;5.554;2023-06-26T15:39:52;24.90;67.50
37274;DHT22;23161;51.250;5.554;2023-06-26T15:42:18;24.90;69.20
37274;DHT22;23161;51.250;5.554;2023-06-26T15:44:43;24.70;68.30
37274;DHT22;23161;51.250;5.554;2023-06-26T15:47:09;24.70;67.70